BAW582 EGLL-LCLK
Flight info
| Callsign | BAW582 |
|---|---|
| Flight time | N/A |
| Altitude | 35000 |
| Route | DET2G DET L6 DVR UL9 KONAN DCT KOK DCT REMBA DCT SPI DCT ULNOK DCT VIBOM DCT NOMBO DCT RIDAR DCT GOMIG DCT GOTAR DCT BABIT/N0484F370 DCT KOTUS DCT NISVA N131 USALI DCT RODIP DCT BELGI UN131 KULAR UT39 TOMBI M855 DASNI M601 BONEK BONEK1R |
| Aircraft | L101/H-SDFGHIRWXY/S |
Departure
| Time | 2026-05-04 10:02 |
|---|---|
| Airport | London Heathrow Airport (EGLL) |
Arrival
| Time | N/A |
|---|---|
| Airport | Larnaca International Airport (LCLK) |
| Time | Latitude | Longitude | Altitude | Speed | Heading |
|---|---|---|---|---|---|
| 2026-05-04 09:28 | 51.47050 | -0.47736 | 94 ft | 0 kts | 90° |
| 2026-05-04 09:49 | 51.47054 | -0.47845 | 92 ft | 4 kts | 121° |
| 2026-05-04 09:49 | 51.47071 | -0.47869 | 92 ft | 4 kts | 176° |
| 2026-05-04 09:49 | 51.47096 | -0.47870 | 91 ft | 3 kts | 180° |
| 2026-05-04 09:51 | 51.47100 | -0.47870 | 91 ft | 0 kts | 180° |
| 2026-05-04 09:53 | 51.47097 | -0.47870 | 91 ft | 2 kts | 179° |
| 2026-05-04 09:53 | 51.47067 | -0.47870 | 92 ft | 6 kts | 181° |
| 2026-05-04 09:53 | 51.47015 | -0.47872 | 91 ft | 9 kts | 180° |
| 2026-05-04 09:53 | 51.46942 | -0.47873 | 91 ft | 12 kts | 180° |
| 2026-05-04 09:54 | 51.46850 | -0.47871 | 91 ft | 14 kts | 179° |
| 2026-05-04 09:54 | 51.46740 | -0.47868 | 91 ft | 17 kts | 179° |
| 2026-05-04 09:54 | 51.46661 | -0.47831 | 95 ft | 11 kts | 120° |
| 2026-05-04 09:54 | 51.46654 | -0.47701 | 91 ft | 13 kts | 90° |
| 2026-05-04 09:55 | 51.46653 | -0.47545 | 91 ft | 16 kts | 90° |
| 2026-05-04 09:55 | 51.46655 | -0.47354 | 92 ft | 18 kts | 89° |
| 2026-05-04 09:55 | 51.46656 | -0.47144 | 94 ft | 20 kts | 89° |
| 2026-05-04 09:55 | 51.46659 | -0.46918 | 95 ft | 21 kts | 89° |
| 2026-05-04 09:56 | 51.46658 | -0.46680 | 94 ft | 22 kts | 90° |
| 2026-05-04 09:56 | 51.46658 | -0.46428 | 95 ft | 23 kts | 89° |
| 2026-05-04 09:56 | 51.46660 | -0.46165 | 93 ft | 24 kts | 89° |
| 2026-05-04 09:56 | 51.46661 | -0.45888 | 91 ft | 25 kts | 89° |
| 2026-05-04 09:57 | 51.46662 | -0.45605 | 91 ft | 26 kts | 91° |
| 2026-05-04 09:57 | 51.46662 | -0.45307 | 91 ft | 27 kts | 90° |
| 2026-05-04 09:57 | 51.46661 | -0.45007 | 91 ft | 28 kts | 90° |
| 2026-05-04 09:57 | 51.46663 | -0.44703 | 91 ft | 26 kts | 88° |
| 2026-05-04 09:58 | 51.46665 | -0.44413 | 91 ft | 23 kts | 90° |
| 2026-05-04 09:58 | 51.46668 | -0.44151 | 91 ft | 24 kts | 90° |
| 2026-05-04 09:58 | 51.46667 | -0.43903 | 91 ft | 22 kts | 90° |
| 2026-05-04 10:00 | 51.46495 | -0.44427 | 93 ft | 99 kts | 269° |
| 2026-05-04 10:00 | 51.46493 | -0.45920 | 102 ft | 170 kts | 270° |
| 2026-05-04 10:02 | 51.40234 | -0.55711 | 6888 ft | 301 kts | 151° |
| 2026-05-04 10:04 | 51.33516 | -0.34785 | 13246 ft | 370 kts | 106° |
| 2026-05-04 10:04 | 51.32880 | -0.30672 | 13370 ft | 393 kts | 104° |
| 2026-05-04 10:04 | 51.32370 | -0.26311 | 13893 ft | 401 kts | 99° |
| 2026-05-04 10:04 | 51.32056 | -0.21905 | 14881 ft | 396 kts | 96° |
| 2026-05-04 10:05 | 51.31883 | -0.17468 | 15544 ft | 404 kts | 94° |
| 2026-05-04 10:05 | 51.31811 | -0.12921 | 16093 ft | 413 kts | 92° |
| 2026-05-04 10:05 | 51.31751 | -0.08350 | 17005 ft | 412 kts | 93° |
| 2026-05-04 10:05 | 51.31660 | -0.03730 | 17646 ft | 419 kts | 94° |
| 2026-05-04 10:06 | 51.31553 | 0.00941 | 18371 ft | 424 kts | 94° |
| 2026-05-04 10:06 | 51.31455 | 0.05695 | 19038 ft | 429 kts | 93° |
| 2026-05-04 10:06 | 51.31376 | 0.10475 | 19767 ft | 432 kts | 93° |
| 2026-05-04 10:08 | 51.30897 | 0.40152 | 23973 ft | 458 kts | 93° |
| 2026-05-04 10:08 | 51.30806 | 0.45263 | 24545 ft | 462 kts | 94° |
| 2026-05-04 10:08 | 51.30697 | 0.50418 | 25074 ft | 467 kts | 95° |
| 2026-05-04 10:08 | 51.30539 | 0.55632 | 25421 ft | 475 kts | 98° |
| 2026-05-04 10:09 | 51.29986 | 0.60814 | 25536 ft | 485 kts | 108° |
| 2026-05-04 10:09 | 51.29020 | 0.66036 | 25695 ft | 495 kts | 111° |
| 2026-05-04 10:09 | 51.28004 | 0.71313 | 26260 ft | 497 kts | 109° |
| 2026-05-04 10:09 | 51.27110 | 0.76608 | 27276 ft | 491 kts | 108° |
| 2026-05-04 10:10 | 51.26274 | 0.81872 | 28065 ft | 489 kts | 109° |
| 2026-05-04 10:10 | 51.25403 | 0.87106 | 28875 ft | 486 kts | 110° |
| 2026-05-04 10:10 | 51.24480 | 0.92278 | 29721 ft | 483 kts | 111° |
| 2026-05-04 10:10 | 51.23532 | 0.97410 | 30439 ft | 481 kts | 111° |
| 2026-05-04 10:11 | 51.22573 | 1.02561 | 30890 ft | 485 kts | 111° |
| 2026-05-04 10:11 | 51.21627 | 1.07697 | 31626 ft | 482 kts | 111° |
| 2026-05-04 10:11 | 51.20689 | 1.12813 | 32358 ft | 480 kts | 111° |
| 2026-05-04 10:11 | 51.19748 | 1.17913 | 33096 ft | 477 kts | 111° |
| 2026-05-04 10:12 | 51.18809 | 1.22958 | 33813 ft | 475 kts | 111° |
| 2026-05-04 10:12 | 51.17866 | 1.27996 | 34389 ft | 473 kts | 111° |
| 2026-05-04 10:12 | 51.16979 | 1.33071 | 34754 ft | 480 kts | 107° |
| 2026-05-04 10:12 | 51.16467 | 1.38369 | 34906 ft | 486 kts | 99° |
| 2026-05-04 10:13 | 51.15928 | 1.49122 | 34978 ft | 487 kts | 99° |
| 2026-05-04 10:13 | 51.15268 | 1.59878 | 34995 ft | 488 kts | 99° |
| 2026-05-04 10:14 | 51.14689 | 1.70672 | 34998 ft | 489 kts | 99° |
| 2026-05-04 10:16 | 51.12526 | 2.13842 | 34995 ft | 489 kts | 101° |
| 2026-05-04 10:16 | 51.11850 | 2.24622 | 34996 ft | 490 kts | 99° |
| 2026-05-04 10:17 | 51.11262 | 2.35419 | 34988 ft | 490 kts | 99° |
| 2026-05-04 10:19 | 51.07999 | 2.72765 | 35004 ft | 483 kts | 112° |
| 2026-05-04 10:19 | 51.07053 | 2.77894 | 34998 ft | 484 kts | 111° |
| 2026-05-04 10:19 | 51.05288 | 2.88238 | 35009 ft | 485 kts | 110° |
| 2026-05-04 10:20 | 51.03458 | 2.98590 | 35012 ft | 486 kts | 111° |
| 2026-05-04 10:20 | 51.01577 | 3.08917 | 35004 ft | 487 kts | 111° |
| 2026-05-04 10:21 | 50.99690 | 3.19240 | 34995 ft | 487 kts | 111° |
| 2026-05-04 10:21 | 50.97791 | 3.29558 | 34992 ft | 486 kts | 111° |
| 2026-05-04 10:22 | 50.94917 | 3.45037 | 34986 ft | 490 kts | 112° |
| 2026-05-04 10:23 | 50.92993 | 3.55335 | 34985 ft | 490 kts | 112° |
| 2026-05-04 10:25 | 50.85142 | 3.96774 | 34995 ft | 493 kts | 112° |
| 2026-05-04 10:25 | 50.83146 | 4.07175 | 34997 ft | 493 kts | 112° |
| 2026-05-04 10:26 | 50.81144 | 4.17540 | 35007 ft | 493 kts | 112° |
| 2026-05-04 10:26 | 50.79147 | 4.27832 | 35006 ft | 492 kts | 113° |
| 2026-05-04 10:27 | 50.77132 | 4.38158 | 35014 ft | 491 kts | 113° |
| 2026-05-04 10:27 | 50.75106 | 4.48479 | 35015 ft | 491 kts | 113° |
| 2026-05-04 10:28 | 50.73076 | 4.58761 | 35013 ft | 491 kts | 113° |
| 2026-05-04 10:28 | 50.71378 | 4.67325 | 34997 ft | 491 kts | 113° |
| 2026-05-04 10:29 | 50.69329 | 4.77599 | 34993 ft | 492 kts | 113° |
| 2026-05-04 10:29 | 50.67268 | 4.87893 | 35001 ft | 492 kts | 113° |
| 2026-05-04 10:30 | 50.65133 | 4.98136 | 35001 ft | 491 kts | 115° |
| 2026-05-04 10:30 | 50.62892 | 5.08223 | 35009 ft | 491 kts | 114° |
| 2026-05-04 10:31 | 50.60735 | 5.18437 | 34995 ft | 492 kts | 113° |
| 2026-05-04 10:32 | 50.53265 | 5.54359 | 34995 ft | 493 kts | 113° |
| 2026-05-04 10:33 | 50.51087 | 5.64580 | 34976 ft | 493 kts | 114° |
| 2026-05-04 10:33 | 50.48777 | 5.74712 | 34989 ft | 492 kts | 115° |
| 2026-05-04 10:34 | 50.46494 | 5.84768 | 34984 ft | 492 kts | 115° |
| 2026-05-04 10:34 | 50.44218 | 5.94902 | 34986 ft | 492 kts | 115° |
| 2026-05-04 10:35 | 50.41918 | 6.05083 | 34964 ft | 492 kts | 115° |
| 2026-05-04 10:35 | 50.39637 | 6.15139 | 34981 ft | 493 kts | 115° |
| 2026-05-04 10:36 | 50.37329 | 6.25275 | 34988 ft | 493 kts | 115° |
| 2026-05-04 10:36 | 50.35015 | 6.35390 | 34974 ft | 493 kts | 115° |
| 2026-05-04 10:37 | 50.32693 | 6.45488 | 34975 ft | 493 kts | 115° |
| 2026-05-04 10:37 | 50.30360 | 6.55585 | 34975 ft | 493 kts | 115° |
| 2026-05-04 10:39 | 50.22155 | 6.90733 | 35006 ft | 492 kts | 115° |
| 2026-05-04 10:40 | 50.19786 | 7.00774 | 35013 ft | 493 kts | 115° |
| 2026-05-04 10:40 | 50.17408 | 7.10808 | 35023 ft | 493 kts | 115° |
| 2026-05-04 10:41 | 50.15020 | 7.20836 | 35018 ft | 492 kts | 115° |
| 2026-05-04 10:41 | 50.12628 | 7.30835 | 35018 ft | 492 kts | 115° |
| 2026-05-04 10:42 | 50.10224 | 7.40834 | 35018 ft | 494 kts | 115° |
| 2026-05-04 10:42 | 50.07818 | 7.50800 | 34996 ft | 495 kts | 115° |
| 2026-05-04 10:43 | 50.05387 | 7.60833 | 34995 ft | 495 kts | 115° |
| 2026-05-04 10:45 | 49.95587 | 8.00790 | 35014 ft | 493 kts | 115° |
| 2026-05-04 10:45 | 49.93134 | 8.10676 | 35020 ft | 493 kts | 115° |
| 2026-05-04 10:46 | 49.90659 | 8.20614 | 34985 ft | 493 kts | 115° |
| 2026-05-04 10:46 | 49.88181 | 8.30514 | 34996 ft | 493 kts | 116° |
| 2026-05-04 10:47 | 49.85420 | 8.40186 | 34963 ft | 484 kts | 128° |
| 2026-05-04 10:47 | 49.81287 | 8.48276 | 35008 ft | 479 kts | 134° |
| 2026-05-04 10:49 | 49.64830 | 8.80815 | 35011 ft | 480 kts | 133° |
| 2026-05-04 10:50 | 49.60659 | 8.88859 | 35010 ft | 480 kts | 133° |
| 2026-05-04 10:52 | 49.44294 | 9.21362 | 35013 ft | 485 kts | 127° |
| 2026-05-04 10:52 | 49.40590 | 9.30011 | 35015 ft | 484 kts | 128° |
| 2026-05-04 10:54 | 49.25728 | 9.64553 | 35019 ft | 485 kts | 127° |
| 2026-05-04 10:56 | 49.10849 | 9.98903 | 35020 ft | 484 kts | 127° |
| 2026-05-04 10:57 | 49.07021 | 10.07328 | 35004 ft | 481 kts | 134° |
| 2026-05-04 10:57 | 49.02380 | 10.14566 | 35033 ft | 477 kts | 140° |
| 2026-05-04 10:58 | 48.97738 | 10.21710 | 35021 ft | 478 kts | 138° |
| 2026-05-04 10:58 | 48.93086 | 10.28955 | 35031 ft | 478 kts | 139° |
| 2026-05-04 10:59 | 48.88370 | 10.36120 | 35030 ft | 478 kts | 139° |
| 2026-05-04 10:59 | 48.83655 | 10.43253 | 35035 ft | 478 kts | 139° |
| 2026-05-04 11:00 | 48.78917 | 10.50400 | 35032 ft | 478 kts | 139° |
| 2026-05-04 11:02 | 48.60313 | 10.79148 | 34977 ft | 486 kts | 122° |
| 2026-05-04 11:05 | 48.42470 | 11.51661 | 35019 ft | 493 kts | 112° |
| 2026-05-04 11:06 | 48.40190 | 11.61399 | 35018 ft | 493 kts | 112° |
| 2026-05-04 11:06 | 48.37895 | 11.71148 | 35010 ft | 493 kts | 112° |
| 2026-05-04 11:10 | 48.21612 | 12.39154 | 34996 ft | 495 kts | 112° |
| 2026-05-04 11:12 | 48.11666 | 12.77514 | 35009 ft | 493 kts | 118° |
| 2026-05-04 11:12 | 48.08715 | 12.86778 | 35002 ft | 494 kts | 117° |
| 2026-05-04 11:13 | 48.05870 | 12.96142 | 35004 ft | 494 kts | 116° |
| 2026-05-04 11:13 | 48.03028 | 13.05502 | 35008 ft | 494 kts | 116° |
| 2026-05-04 11:14 | 48.00171 | 13.14860 | 35008 ft | 494 kts | 116° |
| 2026-05-04 11:16 | 47.88698 | 13.52161 | 35012 ft | 495 kts | 116° |
| 2026-05-04 11:16 | 47.86297 | 13.59898 | 35009 ft | 495 kts | 116° |
| 2026-05-04 11:17 | 47.82931 | 13.70705 | 34995 ft | 495 kts | 116° |
| 2026-05-04 11:19 | 47.71796 | 14.06123 | 35013 ft | 493 kts | 116° |
| 2026-05-04 11:19 | 47.68877 | 14.15328 | 35008 ft | 493 kts | 116° |
| 2026-05-04 11:20 | 47.65942 | 14.24558 | 35016 ft | 493 kts | 116° |
| 2026-05-04 11:20 | 47.63004 | 14.33752 | 35015 ft | 493 kts | 116° |
| 2026-05-04 11:22 | 47.51189 | 14.70400 | 35036 ft | 493 kts | 116° |
| 2026-05-04 11:23 | 47.48212 | 14.79551 | 35042 ft | 494 kts | 116° |
| 2026-05-04 11:25 | 47.37750 | 15.11460 | 35041 ft | 493 kts | 116° |
| 2026-05-04 11:25 | 47.34739 | 15.20567 | 35040 ft | 494 kts | 116° |
| 2026-05-04 11:27 | 47.21119 | 15.61378 | 35049 ft | 493 kts | 116° |
| 2026-05-04 11:28 | 47.18074 | 15.70414 | 35049 ft | 493 kts | 116° |
| 2026-05-04 11:28 | 47.15015 | 15.79460 | 35051 ft | 493 kts | 116° |
| 2026-05-04 11:29 | 47.11972 | 15.88427 | 35051 ft | 493 kts | 116° |
| 2026-05-04 11:29 | 47.08887 | 15.97488 | 35049 ft | 493 kts | 116° |
| 2026-05-04 11:33 | 46.86017 | 16.59148 | 35066 ft | 493 kts | 118° |
| 2026-05-04 11:33 | 46.82686 | 16.67894 | 35066 ft | 492 kts | 118° |
| 2026-05-04 11:34 | 46.79359 | 16.76634 | 35074 ft | 492 kts | 118° |
| 2026-05-04 11:34 | 46.76023 | 16.85370 | 35070 ft | 492 kts | 118° |
| 2026-05-04 11:35 | 46.72681 | 16.94094 | 35095 ft | 492 kts | 118° |
| 2026-05-04 11:35 | 46.69335 | 17.02802 | 35101 ft | 492 kts | 118° |
| 2026-05-04 11:36 | 46.66012 | 17.11426 | 35103 ft | 492 kts | 118° |
| 2026-05-04 11:36 | 46.62657 | 17.20101 | 35097 ft | 492 kts | 118° |
| 2026-05-04 11:37 | 46.59297 | 17.28765 | 35078 ft | 491 kts | 118° |
| 2026-05-04 11:37 | 46.55933 | 17.37410 | 35083 ft | 491 kts | 118° |
| 2026-05-04 11:38 | 46.52562 | 17.46048 | 35084 ft | 491 kts | 118° |
| 2026-05-04 11:38 | 46.49203 | 17.54621 | 35091 ft | 491 kts | 118° |
| 2026-05-04 11:39 | 46.45819 | 17.63233 | 35097 ft | 491 kts | 118° |
| 2026-05-04 11:41 | 46.33920 | 17.93310 | 35104 ft | 491 kts | 118° |
| 2026-05-04 11:41 | 46.30504 | 18.01883 | 35105 ft | 491 kts | 118° |
| 2026-05-04 11:42 | 46.27087 | 18.10431 | 35110 ft | 491 kts | 119° |
| 2026-05-04 11:42 | 46.23682 | 18.18924 | 35119 ft | 491 kts | 119° |
| 2026-05-04 11:43 | 46.20251 | 18.27455 | 35123 ft | 491 kts | 118° |
| 2026-05-04 11:43 | 46.16810 | 18.35984 | 35123 ft | 491 kts | 118° |
| 2026-05-04 11:44 | 46.13367 | 18.44495 | 35122 ft | 491 kts | 118° |
| 2026-05-04 11:44 | 46.09916 | 18.52996 | 35119 ft | 491 kts | 119° |
| 2026-05-04 11:45 | 46.06452 | 18.61501 | 35124 ft | 492 kts | 118° |
| 2026-05-04 11:45 | 46.02984 | 18.69994 | 35117 ft | 492 kts | 118° |
| 2026-05-04 11:46 | 45.99508 | 18.78482 | 35118 ft | 492 kts | 118° |
| 2026-05-04 11:46 | 45.96023 | 18.86960 | 35117 ft | 492 kts | 118° |
| 2026-05-04 11:47 | 45.92119 | 18.94971 | 35123 ft | 494 kts | 129° |
| 2026-05-04 11:47 | 45.87503 | 19.02315 | 35119 ft | 496 kts | 130° |
| 2026-05-04 11:48 | 45.83004 | 19.09813 | 35113 ft | 496 kts | 128° |
| 2026-05-04 11:48 | 45.78523 | 19.17331 | 35122 ft | 496 kts | 129° |
| 2026-05-04 11:49 | 45.74018 | 19.24801 | 35113 ft | 495 kts | 129° |
| 2026-05-04 11:49 | 45.69506 | 19.32278 | 35133 ft | 496 kts | 129° |
| 2026-05-04 11:50 | 45.64992 | 19.39740 | 35130 ft | 496 kts | 129° |
| 2026-05-04 11:50 | 45.60470 | 19.47192 | 35117 ft | 496 kts | 129° |
| 2026-05-04 11:51 | 45.55973 | 19.54584 | 35118 ft | 496 kts | 129° |
| 2026-05-04 11:51 | 45.51444 | 19.62008 | 35135 ft | 496 kts | 129° |
| 2026-05-04 11:52 | 45.46907 | 19.69425 | 35114 ft | 496 kts | 129° |
| 2026-05-04 11:52 | 45.42362 | 19.76837 | 35139 ft | 496 kts | 129° |
| 2026-05-04 11:53 | 45.37814 | 19.84232 | 35120 ft | 497 kts | 129° |
| 2026-05-04 11:53 | 45.33242 | 19.91608 | 35118 ft | 497 kts | 131° |
| 2026-05-04 11:55 | 45.12779 | 20.18158 | 35125 ft | 499 kts | 135° |
| 2026-05-04 11:56 | 45.07625 | 20.24747 | 35126 ft | 500 kts | 136° |
| 2026-05-04 11:56 | 45.02458 | 20.31339 | 35143 ft | 500 kts | 135° |
| 2026-05-04 11:57 | 44.97287 | 20.37917 | 35159 ft | 500 kts | 135° |
| 2026-05-04 11:57 | 44.92145 | 20.44443 | 35154 ft | 500 kts | 135° |
| 2026-05-04 11:58 | 44.86960 | 20.51006 | 35150 ft | 500 kts | 135° |
| 2026-05-04 11:58 | 44.81777 | 20.57551 | 35157 ft | 500 kts | 135° |
| 2026-05-04 11:59 | 44.76601 | 20.64067 | 35127 ft | 498 kts | 135° |
| 2026-05-04 11:59 | 44.71432 | 20.70560 | 35134 ft | 498 kts | 135° |
| 2026-05-04 12:00 | 44.66254 | 20.77048 | 35131 ft | 498 kts | 136° |
| 2026-05-04 12:00 | 44.61114 | 20.83472 | 35149 ft | 498 kts | 135° |
| 2026-05-04 12:01 | 44.55929 | 20.89938 | 35143 ft | 499 kts | 135° |
| 2026-05-04 12:02 | 44.37730 | 21.12504 | 35139 ft | 499 kts | 135° |
| 2026-05-04 12:03 | 44.32516 | 21.18932 | 35134 ft | 500 kts | 135° |
| 2026-05-04 12:03 | 44.27291 | 21.25359 | 35134 ft | 501 kts | 135° |
| 2026-05-04 12:04 | 44.22058 | 21.31778 | 35143 ft | 501 kts | 136° |
| 2026-05-04 12:04 | 44.16865 | 21.38132 | 35141 ft | 498 kts | 136° |
| 2026-05-04 12:05 | 44.11653 | 21.44494 | 35136 ft | 497 kts | 136° |
| 2026-05-04 12:05 | 44.06441 | 21.50842 | 35129 ft | 499 kts | 136° |
| 2026-05-04 12:06 | 44.01216 | 21.57192 | 35147 ft | 499 kts | 135° |
| 2026-05-04 12:06 | 43.95999 | 21.63512 | 35126 ft | 496 kts | 136° |
| 2026-05-04 12:07 | 43.91675 | 21.68739 | 35131 ft | 496 kts | 136° |
| 2026-05-04 12:07 | 43.86477 | 21.75012 | 35121 ft | 496 kts | 136° |
| 2026-05-04 12:08 | 43.81263 | 21.81288 | 35139 ft | 497 kts | 135° |
| 2026-05-04 12:08 | 43.76046 | 21.87552 | 35123 ft | 495 kts | 136° |
| 2026-05-04 12:09 | 43.70860 | 21.93763 | 35118 ft | 495 kts | 136° |
| 2026-05-04 12:09 | 43.65645 | 21.99994 | 35114 ft | 495 kts | 136° |
| 2026-05-04 12:10 | 43.60422 | 22.06222 | 35112 ft | 495 kts | 136° |
| 2026-05-04 12:10 | 43.55195 | 22.12438 | 35119 ft | 497 kts | 136° |
| 2026-05-04 12:11 | 43.49985 | 22.18621 | 35110 ft | 497 kts | 136° |
| 2026-05-04 12:11 | 43.44737 | 22.24833 | 35120 ft | 497 kts | 136° |
| 2026-05-04 12:12 | 43.39498 | 22.31020 | 35110 ft | 495 kts | 136° |
| 2026-05-04 12:12 | 43.34271 | 22.37173 | 35109 ft | 494 kts | 136° |
| 2026-05-04 12:14 | 43.13338 | 22.61686 | 35113 ft | 491 kts | 136° |
| 2026-05-04 12:15 | 43.08159 | 22.67715 | 35113 ft | 491 kts | 136° |
| 2026-05-04 12:15 | 43.02937 | 22.73781 | 35125 ft | 492 kts | 137° |
| 2026-05-04 12:16 | 42.97755 | 22.79825 | 35109 ft | 488 kts | 135° |
| 2026-05-04 12:16 | 42.92716 | 22.86034 | 35112 ft | 487 kts | 135° |
| 2026-05-04 12:17 | 42.87657 | 22.92207 | 35111 ft | 487 kts | 135° |
| 2026-05-04 12:17 | 42.82687 | 22.98464 | 35106 ft | 484 kts | 134° |
| 2026-05-04 12:18 | 42.77773 | 23.04715 | 35124 ft | 484 kts | 134° |
| 2026-05-04 12:18 | 42.72884 | 23.10928 | 35121 ft | 484 kts | 134° |
| 2026-05-04 12:19 | 42.67955 | 23.17186 | 35134 ft | 485 kts | 134° |
| 2026-05-04 12:19 | 42.63046 | 23.23407 | 35109 ft | 478 kts | 134° |
| 2026-05-04 12:20 | 42.58195 | 23.29540 | 35125 ft | 476 kts | 135° |
| 2026-05-04 12:20 | 42.53344 | 23.35667 | 35130 ft | 477 kts | 134° |
| 2026-05-04 12:21 | 42.48478 | 23.41796 | 35129 ft | 477 kts | 135° |
| 2026-05-04 12:21 | 42.43624 | 23.47893 | 35112 ft | 472 kts | 135° |
| 2026-05-04 12:22 | 42.38832 | 23.53894 | 35120 ft | 467 kts | 135° |
| 2026-05-04 12:22 | 42.34091 | 23.59826 | 35124 ft | 467 kts | 136° |
| 2026-05-04 12:23 | 42.29296 | 23.65777 | 35113 ft | 468 kts | 136° |
| 2026-05-04 12:23 | 42.24434 | 23.71628 | 35112 ft | 468 kts | 137° |
| 2026-05-04 12:24 | 42.19584 | 23.77477 | 35101 ft | 465 kts | 137° |
| 2026-05-04 12:24 | 42.14798 | 23.83295 | 35104 ft | 463 kts | 137° |
| 2026-05-04 12:25 | 42.10003 | 23.89110 | 35102 ft | 465 kts | 137° |
| 2026-05-04 12:25 | 42.05240 | 23.94876 | 35105 ft | 463 kts | 136° |
| 2026-05-04 12:26 | 42.00453 | 24.00663 | 35092 ft | 461 kts | 137° |
| 2026-05-04 12:26 | 41.95673 | 24.06433 | 35083 ft | 462 kts | 136° |
| 2026-05-04 12:27 | 41.90882 | 24.12200 | 35088 ft | 464 kts | 136° |
| 2026-05-04 12:27 | 41.86079 | 24.17969 | 35086 ft | 462 kts | 136° |
| 2026-05-04 12:28 | 41.81304 | 24.23695 | 35075 ft | 459 kts | 136° |
| 2026-05-04 12:28 | 41.76529 | 24.29412 | 35054 ft | 461 kts | 137° |
| 2026-05-04 12:29 | 41.71759 | 24.35106 | 35066 ft | 463 kts | 136° |
| 2026-05-04 12:29 | 41.66953 | 24.40831 | 35077 ft | 462 kts | 136° |
| 2026-05-04 12:30 | 41.62167 | 24.46521 | 35068 ft | 458 kts | 136° |
| 2026-05-04 12:30 | 41.57383 | 24.52201 | 35049 ft | 460 kts | 137° |
| 2026-05-04 12:31 | 41.52578 | 24.57889 | 35044 ft | 462 kts | 136° |
| 2026-05-04 12:31 | 41.47770 | 24.63569 | 35050 ft | 462 kts | 136° |
| 2026-05-04 12:32 | 41.40648 | 24.72226 | 35061 ft | 462 kts | 134° |
| 2026-05-04 12:33 | 41.36062 | 24.78158 | 35044 ft | 463 kts | 135° |
| 2026-05-04 12:33 | 41.31419 | 24.84102 | 35040 ft | 463 kts | 134° |
| 2026-05-04 12:34 | 41.26792 | 24.90123 | 35058 ft | 461 kts | 134° |
| 2026-05-04 12:34 | 41.22238 | 24.96071 | 35049 ft | 462 kts | 134° |
| 2026-05-04 12:35 | 41.17607 | 25.02059 | 35064 ft | 465 kts | 134° |
| 2026-05-04 12:35 | 41.12981 | 25.08048 | 35055 ft | 464 kts | 134° |
| 2026-05-04 12:36 | 41.08357 | 25.14037 | 35057 ft | 464 kts | 134° |
| 2026-05-04 12:36 | 41.03728 | 25.20015 | 35053 ft | 464 kts | 134° |
| 2026-05-04 12:37 | 40.99098 | 25.25989 | 35056 ft | 464 kts | 134° |
| 2026-05-04 12:37 | 40.94494 | 25.31910 | 35076 ft | 464 kts | 134° |
| 2026-05-04 12:38 | 40.89853 | 25.37866 | 35066 ft | 466 kts | 133° |
| 2026-05-04 12:38 | 40.85197 | 25.43834 | 35064 ft | 466 kts | 133° |
| 2026-05-04 12:39 | 40.80532 | 25.49800 | 35063 ft | 466 kts | 134° |
| 2026-05-04 12:39 | 40.75864 | 25.55759 | 35064 ft | 466 kts | 134° |
| 2026-05-04 12:40 | 40.71196 | 25.61703 | 35064 ft | 466 kts | 134° |
| 2026-05-04 12:40 | 40.66526 | 25.67634 | 35073 ft | 466 kts | 133° |
| 2026-05-04 12:41 | 40.61883 | 25.73539 | 35062 ft | 467 kts | 133° |
| 2026-05-04 12:41 | 40.57197 | 25.79489 | 35061 ft | 468 kts | 133° |
| 2026-05-04 12:42 | 40.52493 | 25.85405 | 35067 ft | 468 kts | 133° |
| 2026-05-04 12:42 | 40.48014 | 25.91581 | 35074 ft | 466 kts | 129° |
| 2026-05-04 12:43 | 40.43706 | 25.97955 | 35079 ft | 466 kts | 129° |
| 2026-05-04 12:43 | 40.39377 | 26.04301 | 35083 ft | 467 kts | 128° |
| 2026-05-04 12:44 | 40.35084 | 26.10680 | 35085 ft | 468 kts | 128° |
| 2026-05-04 12:44 | 40.30805 | 26.17049 | 35078 ft | 469 kts | 128° |
| 2026-05-04 12:45 | 40.26482 | 26.23468 | 35073 ft | 469 kts | 128° |
| 2026-05-04 12:45 | 40.22158 | 26.29883 | 35103 ft | 470 kts | 128° |
| 2026-05-04 12:46 | 40.17832 | 26.36291 | 35102 ft | 470 kts | 128° |
| 2026-05-04 12:46 | 40.13462 | 26.42646 | 35102 ft | 471 kts | 130° |
| 2026-05-04 12:47 | 40.08790 | 26.48660 | 35103 ft | 472 kts | 133° |
| 2026-05-04 12:47 | 40.04097 | 26.54644 | 35058 ft | 473 kts | 132° |
| 2026-05-04 12:48 | 39.99404 | 26.60701 | 35058 ft | 475 kts | 132° |
| 2026-05-04 12:48 | 39.94674 | 26.66766 | 35050 ft | 477 kts | 133° |
| 2026-05-04 12:49 | 39.89937 | 26.72825 | 35049 ft | 477 kts | 133° |
| 2026-05-04 12:49 | 39.85219 | 26.78850 | 35050 ft | 477 kts | 133° |
| 2026-05-04 12:50 | 39.80480 | 26.84890 | 35056 ft | 477 kts | 133° |
| 2026-05-04 12:50 | 39.75708 | 26.90900 | 35069 ft | 478 kts | 134° |
| 2026-05-04 12:51 | 39.70838 | 26.96837 | 35073 ft | 481 kts | 134° |
| 2026-05-04 12:51 | 39.65964 | 27.02810 | 35075 ft | 482 kts | 134° |
| 2026-05-04 12:52 | 39.61094 | 27.08780 | 35074 ft | 482 kts | 134° |
| 2026-05-04 12:52 | 39.56202 | 27.14756 | 35076 ft | 482 kts | 134° |
| 2026-05-04 12:53 | 39.51327 | 27.20730 | 35050 ft | 482 kts | 132° |
| 2026-05-04 12:53 | 39.46918 | 27.27240 | 35051 ft | 481 kts | 126° |
| 2026-05-04 12:54 | 39.43388 | 27.32810 | 35046 ft | 481 kts | 127° |
| 2026-05-04 12:54 | 39.38388 | 27.40526 | 35050 ft | 481 kts | 127° |
| 2026-05-04 12:55 | 39.34830 | 27.46067 | 35054 ft | 481 kts | 127° |
| 2026-05-04 12:55 | 39.30545 | 27.52726 | 35049 ft | 483 kts | 126° |
| 2026-05-04 12:56 | 39.26249 | 27.59402 | 35044 ft | 484 kts | 126° |
| 2026-05-04 12:56 | 39.21943 | 27.66093 | 35044 ft | 484 kts | 126° |
| 2026-05-04 12:57 | 39.17640 | 27.72764 | 35043 ft | 484 kts | 127° |
| 2026-05-04 12:57 | 39.13334 | 27.79430 | 35039 ft | 484 kts | 127° |
| 2026-05-04 12:58 | 39.09015 | 27.86102 | 35038 ft | 486 kts | 127° |
| 2026-05-04 12:58 | 39.04689 | 27.92738 | 35040 ft | 487 kts | 127° |
| 2026-05-04 12:59 | 39.00328 | 27.99395 | 35034 ft | 487 kts | 127° |
| 2026-05-04 12:59 | 38.95975 | 28.06062 | 35035 ft | 486 kts | 127° |
| 2026-05-04 13:00 | 38.91616 | 28.12736 | 35037 ft | 489 kts | 127° |
| 2026-05-04 13:00 | 38.87230 | 28.19442 | 35031 ft | 490 kts | 127° |
| 2026-05-04 13:01 | 38.82838 | 28.26142 | 35032 ft | 490 kts | 127° |
| 2026-05-04 13:01 | 38.78442 | 28.32840 | 35019 ft | 492 kts | 128° |
| 2026-05-04 13:02 | 38.74045 | 28.39515 | 35030 ft | 494 kts | 128° |
| 2026-05-04 13:02 | 38.69598 | 28.46251 | 35023 ft | 495 kts | 128° |
| 2026-05-04 13:03 | 38.65146 | 28.52986 | 35017 ft | 496 kts | 128° |
| 2026-05-04 13:03 | 38.60680 | 28.59711 | 35014 ft | 496 kts | 130° |
| 2026-05-04 13:03 | 38.58183 | 28.62766 | 34991 ft | 497 kts | 141° |
| 2026-05-04 13:04 | 38.55376 | 28.65346 | 35024 ft | 497 kts | 144° |
| 2026-05-04 13:04 | 38.49727 | 28.70492 | 35019 ft | 499 kts | 142° |
| 2026-05-04 13:05 | 38.44139 | 28.75776 | 35002 ft | 500 kts | 143° |
| 2026-05-04 13:05 | 38.38466 | 28.80903 | 35002 ft | 500 kts | 144° |
| 2026-05-04 13:06 | 38.32795 | 28.85976 | 34994 ft | 501 kts | 144° |
| 2026-05-04 13:06 | 38.27091 | 28.91071 | 34995 ft | 502 kts | 144° |
| 2026-05-04 13:07 | 38.21360 | 28.96170 | 35009 ft | 501 kts | 144° |
| 2026-05-04 13:07 | 38.15632 | 29.01256 | 34993 ft | 503 kts | 144° |
| 2026-05-04 13:08 | 38.09902 | 29.06333 | 34986 ft | 503 kts | 145° |
| 2026-05-04 13:08 | 38.04181 | 29.11392 | 34988 ft | 503 kts | 145° |
| 2026-05-04 13:09 | 37.98432 | 29.16465 | 34985 ft | 503 kts | 145° |
| 2026-05-04 13:09 | 37.92678 | 29.21533 | 34986 ft | 504 kts | 145° |
| 2026-05-04 13:10 | 37.86922 | 29.26593 | 34993 ft | 503 kts | 145° |
| 2026-05-04 13:10 | 37.81119 | 29.31663 | 35001 ft | 510 kts | 146° |
| 2026-05-04 13:11 | 37.75276 | 29.36721 | 34987 ft | 509 kts | 146° |
| 2026-05-04 13:11 | 37.69439 | 29.41805 | 34993 ft | 510 kts | 145° |
| 2026-05-04 13:12 | 37.63604 | 29.46893 | 34979 ft | 507 kts | 145° |
| 2026-05-04 13:12 | 37.57807 | 29.51942 | 34979 ft | 506 kts | 145° |
| 2026-05-04 13:13 | 37.52004 | 29.56987 | 34984 ft | 507 kts | 145° |
| 2026-05-04 13:13 | 37.46190 | 29.62030 | 34962 ft | 508 kts | 145° |
| 2026-05-04 13:14 | 37.40361 | 29.67079 | 34961 ft | 508 kts | 145° |
| 2026-05-04 13:14 | 37.34529 | 29.72119 | 34938 ft | 509 kts | 146° |
| 2026-05-04 13:15 | 37.28705 | 29.77114 | 34939 ft | 510 kts | 146° |
| 2026-05-04 13:15 | 37.22843 | 29.82141 | 34944 ft | 510 kts | 146° |
| 2026-05-04 13:16 | 37.16984 | 29.87179 | 34943 ft | 511 kts | 146° |
| 2026-05-04 13:16 | 37.11113 | 29.92219 | 34923 ft | 512 kts | 146° |
| 2026-05-04 13:17 | 37.05228 | 29.97251 | 34920 ft | 512 kts | 146° |
| 2026-05-04 13:17 | 36.99348 | 30.02283 | 34927 ft | 512 kts | 146° |
| 2026-05-04 13:18 | 36.93472 | 30.07308 | 34917 ft | 512 kts | 146° |
| 2026-05-04 13:18 | 36.87594 | 30.12326 | 34909 ft | 512 kts | 146° |
| 2026-05-04 13:19 | 36.81702 | 30.17331 | 34891 ft | 511 kts | 147° |
| 2026-05-04 13:19 | 36.75836 | 30.22292 | 34899 ft | 508 kts | 146° |
| 2026-05-04 13:20 | 36.69989 | 30.27244 | 34890 ft | 508 kts | 146° |
| 2026-05-04 13:20 | 36.64145 | 30.32186 | 34876 ft | 508 kts | 146° |
| 2026-05-04 13:21 | 36.58336 | 30.37090 | 34869 ft | 508 kts | 147° |
| 2026-05-04 13:21 | 36.52484 | 30.42022 | 34877 ft | 508 kts | 147° |
| 2026-05-04 13:22 | 36.46634 | 30.46943 | 34856 ft | 508 kts | 147° |
| 2026-05-04 13:22 | 36.40779 | 30.51858 | 34864 ft | 508 kts | 147° |
| 2026-05-04 13:23 | 36.34927 | 30.56764 | 34846 ft | 508 kts | 147° |
| 2026-05-04 13:23 | 36.29069 | 30.61664 | 34835 ft | 508 kts | 147° |
| 2026-05-04 13:24 | 36.23202 | 30.66566 | 34845 ft | 508 kts | 147° |
| 2026-05-04 13:24 | 36.17341 | 30.71449 | 34837 ft | 508 kts | 148° |
| 2026-05-04 13:25 | 36.08537 | 30.78733 | 34839 ft | 507 kts | 151° |
| 2026-05-04 13:25 | 36.05355 | 30.80557 | 34776 ft | 501 kts | 167° |
| 2026-05-04 13:25 | 36.01999 | 30.81279 | 34818 ft | 492 kts | 178° |
| 2026-05-04 13:26 | 35.95146 | 30.82078 | 34864 ft | 498 kts | 176° |
| 2026-05-04 13:26 | 35.88270 | 30.83082 | 34848 ft | 496 kts | 178° |
| 2026-05-04 13:27 | 35.81380 | 30.83655 | 34848 ft | 495 kts | 180° |
| 2026-05-04 13:27 | 35.74501 | 30.84109 | 34841 ft | 495 kts | 181° |
| 2026-05-04 13:28 | 35.67633 | 30.84550 | 34849 ft | 494 kts | 181° |
| 2026-05-04 13:28 | 35.60766 | 30.85138 | 34823 ft | 499 kts | 172° |
| 2026-05-04 13:29 | 35.57473 | 30.86508 | 34754 ft | 504 kts | 154° |
| 2026-05-04 13:29 | 35.54613 | 30.89004 | 34793 ft | 509 kts | 137° |
| 2026-05-04 13:29 | 35.52437 | 30.92388 | 34819 ft | 515 kts | 120° |
| 2026-05-04 13:29 | 35.51084 | 30.96454 | 34827 ft | 517 kts | 102° |
| 2026-05-04 13:30 | 35.50705 | 31.00826 | 34846 ft | 517 kts | 85° |
| 2026-05-04 13:30 | 35.51299 | 31.05156 | 34885 ft | 514 kts | 72° |
| 2026-05-04 13:30 | 35.52653 | 31.13826 | 34851 ft | 519 kts | 91° |
| 2026-05-04 13:31 | 35.52293 | 31.18172 | 34864 ft | 507 kts | 101° |
| 2026-05-04 13:31 | 35.51546 | 31.22380 | 34900 ft | 504 kts | 104° |
| 2026-05-04 13:31 | 35.49798 | 31.30731 | 34858 ft | 505 kts | 105° |
| 2026-05-04 13:32 | 35.47880 | 31.39041 | 34849 ft | 506 kts | 107° |
| 2026-05-04 13:32 | 35.45826 | 31.47296 | 34847 ft | 506 kts | 108° |
| 2026-05-04 13:33 | 35.43743 | 31.55487 | 34840 ft | 506 kts | 108° |
| 2026-05-04 13:33 | 35.41622 | 31.63747 | 34843 ft | 508 kts | 108° |
| 2026-05-04 13:34 | 35.39485 | 31.72016 | 34840 ft | 508 kts | 108° |
| 2026-05-04 13:34 | 35.38409 | 31.76167 | 34472 ft | 514 kts | 108° |
| 2026-05-04 13:34 | 35.37325 | 31.80336 | 33924 ft | 513 kts | 108° |
| 2026-05-04 13:35 | 35.36243 | 31.84495 | 33273 ft | 511 kts | 108° |
| 2026-05-04 13:35 | 35.34082 | 31.92778 | 32008 ft | 509 kts | 108° |
| 2026-05-04 13:35 | 35.33003 | 31.96903 | 31388 ft | 508 kts | 108° |
| 2026-05-04 13:36 | 35.31922 | 32.01028 | 30782 ft | 506 kts | 108° |
| 2026-05-04 13:36 | 35.30848 | 32.05126 | 30202 ft | 505 kts | 107° |
| 2026-05-04 13:36 | 35.29772 | 32.09210 | 29574 ft | 503 kts | 108° |
| 2026-05-04 13:36 | 35.28683 | 32.13283 | 28891 ft | 504 kts | 108° |
| 2026-05-04 13:37 | 35.27597 | 32.17307 | 28238 ft | 505 kts | 108° |
| 2026-05-04 13:37 | 35.26502 | 32.21396 | 27588 ft | 506 kts | 108° |
| 2026-05-04 13:37 | 35.25416 | 32.25506 | 26951 ft | 508 kts | 108° |
| 2026-05-04 13:37 | 35.24684 | 32.28292 | 26520 ft | 509 kts | 108° |
| 2026-05-04 13:38 | 35.23250 | 32.33763 | 25701 ft | 511 kts | 108° |
| 2026-05-04 13:38 | 35.22160 | 32.37913 | 25101 ft | 512 kts | 108° |
| 2026-05-04 13:38 | 35.21067 | 32.42064 | 24511 ft | 510 kts | 108° |
| 2026-05-04 13:38 | 35.20001 | 32.46110 | 23933 ft | 488 kts | 108° |
| 2026-05-04 13:39 | 35.18985 | 32.49982 | 23399 ft | 467 kts | 108° |
| 2026-05-04 13:39 | 35.18012 | 32.53697 | 22801 ft | 451 kts | 108° |
| 2026-05-04 13:39 | 35.17050 | 32.57326 | 22248 ft | 449 kts | 108° |
| 2026-05-04 13:39 | 35.16080 | 32.60958 | 21686 ft | 449 kts | 108° |
| 2026-05-04 13:40 | 35.15115 | 32.64573 | 21129 ft | 446 kts | 108° |
| 2026-05-04 13:40 | 35.14170 | 32.68121 | 20588 ft | 443 kts | 108° |
| 2026-05-04 13:40 | 35.13221 | 32.71685 | 20059 ft | 440 kts | 108° |
| 2026-05-04 13:40 | 35.12276 | 32.75235 | 19544 ft | 437 kts | 108° |
| 2026-05-04 13:41 | 35.11338 | 32.78753 | 19044 ft | 435 kts | 108° |
| 2026-05-04 13:41 | 35.10404 | 32.82251 | 18545 ft | 432 kts | 108° |
| 2026-05-04 13:41 | 35.09472 | 32.85734 | 18051 ft | 431 kts | 108° |
| 2026-05-04 13:42 | 35.07615 | 32.92649 | 16967 ft | 425 kts | 109° |
| 2026-05-04 13:42 | 35.06661 | 32.96035 | 16431 ft | 420 kts | 110° |
| 2026-05-04 13:42 | 35.05999 | 32.98300 | 16083 ft | 418 kts | 110° |
| 2026-05-04 13:42 | 35.05028 | 33.01581 | 15584 ft | 414 kts | 111° |
| 2026-05-04 13:43 | 35.04061 | 33.04875 | 15112 ft | 411 kts | 110° |
| 2026-05-04 13:43 | 35.03117 | 33.08147 | 14638 ft | 407 kts | 110° |
| 2026-05-04 13:43 | 35.02184 | 33.11408 | 14169 ft | 404 kts | 110° |
| 2026-05-04 13:43 | 35.01257 | 33.14636 | 13699 ft | 401 kts | 110° |
| 2026-05-04 13:44 | 35.00334 | 33.17832 | 13202 ft | 398 kts | 111° |
| 2026-05-04 13:44 | 34.99417 | 33.20996 | 12696 ft | 393 kts | 111° |
| 2026-05-04 13:44 | 34.98508 | 33.24127 | 12210 ft | 389 kts | 111° |
| 2026-05-04 13:44 | 34.97608 | 33.27225 | 11733 ft | 386 kts | 111° |
| 2026-05-04 13:45 | 34.96717 | 33.30299 | 11275 ft | 382 kts | 111° |
| 2026-05-04 13:45 | 34.95831 | 33.33351 | 10813 ft | 379 kts | 111° |
| 2026-05-04 13:45 | 34.94952 | 33.36369 | 10371 ft | 376 kts | 111° |
| 2026-05-04 13:45 | 34.94079 | 33.39361 | 9938 ft | 374 kts | 111° |
| 2026-05-04 13:46 | 34.93217 | 33.42317 | 9489 ft | 363 kts | 111° |
| 2026-05-04 13:46 | 34.92411 | 33.45123 | 9041 ft | 347 kts | 110° |
| 2026-05-04 13:46 | 34.91640 | 33.47851 | 8618 ft | 334 kts | 110° |
| 2026-05-04 13:46 | 34.90899 | 33.50473 | 8209 ft | 322 kts | 111° |
| 2026-05-04 13:47 | 34.90168 | 33.53001 | 7827 ft | 311 kts | 111° |
| 2026-05-04 13:47 | 34.89466 | 33.55452 | 7465 ft | 303 kts | 110° |
| 2026-05-04 13:47 | 34.88819 | 33.57871 | 7091 ft | 296 kts | 109° |
| 2026-05-04 13:47 | 34.88218 | 33.60228 | 6744 ft | 283 kts | 109° |
| 2026-05-04 13:48 | 34.87660 | 33.62446 | 6420 ft | 266 kts | 105° |
| 2026-05-04 13:48 | 34.87523 | 33.64655 | 6069 ft | 262 kts | 81° |
| 2026-05-04 13:48 | 34.87931 | 33.66794 | 5816 ft | 254 kts | 71° |
| 2026-05-04 13:48 | 34.88471 | 33.68739 | 5565 ft | 229 kts | 68° |
| 2026-05-04 13:49 | 34.88997 | 33.70487 | 5465 ft | 218 kts | 67° |
| 2026-05-04 13:49 | 34.89530 | 33.72242 | 5098 ft | 226 kts | 67° |
| 2026-05-04 13:49 | 34.90097 | 33.74091 | 4568 ft | 239 kts | 67° |
| 2026-05-04 13:49 | 34.90681 | 33.76007 | 4010 ft | 238 kts | 67° |
| 2026-05-04 13:50 | 34.91241 | 33.77863 | 3491 ft | 230 kts | 67° |
| 2026-05-04 13:50 | 34.91827 | 33.79632 | 2964 ft | 219 kts | 56° |
| 2026-05-04 13:50 | 34.92878 | 33.80804 | 2412 ft | 200 kts | 17° |
| 2026-05-04 13:50 | 34.94181 | 33.80980 | 2108 ft | 185 kts | 345° |